sensor_id;sensor_type;location;lat;lon;timestamp;temperature;humidity
23685;DHT22;12020;51.384;6.908;2023-06-26T00:00:15;23.00;99.90
23685;DHT22;12020;51.384;6.908;2023-06-26T00:02:41;23.00;99.90
23685;DHT22;12020;51.384;6.908;2023-06-26T00:05:07;23.00;99.90
23685;DHT22;12020;51.384;6.908;2023-06-26T00:07:33;23.00;99.90
23685;DHT22;12020;51.384;6.908;2023-06-26T00:10:03;23.00;99.90
23685;DHT22;12020;51.384;6.908;2023-06-26T00:12:29;23.00;99.90
23685;DHT22;12020;51.384;6.908;2023-06-26T00:14:55;22.90;99.90
23685;DHT22;12020;51.384;6.908;2023-06-26T00:17:21;22.90;99.90
23685;DHT22;12020;51.384;6.908;2023-06-26T00:19:47;22.90;99.90
23685;DHT22;12020;51.384;6.908;2023-06-26T00:22:12;22.90;99.90
23685;DHT22;12020;51.384;6.908;2023-06-26T00:24:38;22.80;99.90
23685;DHT22;12020;51.384;6.908;2023-06-26T00:27:04;22.80;99.90
23685;DHT22;12020;51.384;6.908;2023-06-26T00:29:29;22.70;99.90
23685;DHT22;12020;51.384;6.908;2023-06-26T00:31:55;22.70;99.90
23685;DHT22;12020;51.384;6.908;2023-06-26T00:34:21;22.70;99.90
23685;DHT22;12020;51.384;6.908;2023-06-26T00:36:46;22.60;99.90
23685;DHT22;12020;51.384;6.908;2023-06-26T00:39:12;22.60;99.90
23685;DHT22;12020;51.384;6.908;2023-06-26T00:41:38;22.60;99.90
23685;DHT22;12020;51.384;6.908;2023-06-26T00:44:04;22.60;99.90
23685;DHT22;12020;51.384;6.908;2023-06-26T00:46:32;22.60;99.90
23685;DHT22;12020;51.384;6.908;2023-06-26T00:49:02;22.60;99.90
23685;DHT22;12020;51.384;6.908;2023-06-26T00:51:29;22.50;99.90
23685;DHT22;12020;51.384;6.908;2023-06-26T00:53:56;22.50;99.90
23685;DHT22;12020;51.384;6.908;2023-06-26T00:56:22;22.40;99.90
23685;DHT22;12020;51.384;6.908;2023-06-26T00:58:48;22.40;99.90
23685;DHT22;12020;51.384;6.908;2023-06-26T01:01:14;22.40;99.90
23685;DHT22;12020;51.384;6.908;2023-06-26T01:03:43;22.40;99.90
23685;DHT22;12020;51.384;6.908;2023-06-26T01:06:11;22.30;99.90
23685;DHT22;12020;51.384;6.908;2023-06-26T01:08:39;22.30;99.90
23685;DHT22;12020;51.384;6.908;2023-06-26T01:11:05;22.30;99.90
23685;DHT22;12020;51.384;6.908;2023-06-26T01:13:31;22.30;99.90
23685;DHT22;12020;51.384;6.908;2023-06-26T01:16:00;22.30;99.90
23685;DHT22;12020;51.384;6.908;2023-06-26T01:18:27;22.30;99.90
23685;DHT22;12020;51.384;6.908;2023-06-26T01:20:54;22.30;99.90
23685;DHT22;12020;51.384;6.908;2023-06-26T01:23:35;22.30;99.90
23685;DHT22;12020;51.384;6.908;2023-06-26T01:26:22;22.30;99.90
23685;DHT22;12020;51.384;6.908;2023-06-26T01:28:50;22.30;99.90
23685;DHT22;12020;51.384;6.908;2023-06-26T01:31:16;22.30;99.90
23685;DHT22;12020;51.384;6.908;2023-06-26T01:33:43;22.30;99.90
23685;DHT22;12020;51.384;6.908;2023-06-26T01:36:10;22.30;99.90
23685;DHT22;12020;51.384;6.908;2023-06-26T01:38:36;22.20;99.90
23685;DHT22;12020;51.384;6.908;2023-06-26T01:41:03;22.20;99.90
23685;DHT22;12020;51.384;6.908;2023-06-26T01:55:20;22.00;99.90
23685;DHT22;12020;51.384;6.908;2023-06-26T01:57:53;22.00;99.90
23685;DHT22;12020;51.384;6.908;2023-06-26T02:00:20;22.00;99.90
23685;DHT22;12020;51.384;6.908;2023-06-26T02:02:46;22.00;99.90
23685;DHT22;12020;51.384;6.908;2023-06-26T02:05:13;22.00;99.90
23685;DHT22;12020;51.384;6.908;2023-06-26T02:07:39;22.00;99.90
23685;DHT22;12020;51.384;6.908;2023-06-26T02:10:05;22.00;99.90
23685;DHT22;12020;51.384;6.908;2023-06-26T02:12:32;22.00;99.90
23685;DHT22;12020;51.384;6.908;2023-06-26T02:14:58;21.90;99.90
23685;DHT22;12020;51.384;6.908;2023-06-26T02:17:23;21.90;99.90
23685;DHT22;12020;51.384;6.908;2023-06-26T02:19:49;21.80;99.90
23685;DHT22;12020;51.384;6.908;2023-06-26T02:22:16;21.80;99.90
23685;DHT22;12020;51.384;6.908;2023-06-26T02:24:43;21.80;99.90
23685;DHT22;12020;51.384;6.908;2023-06-26T02:27:09;21.80;99.90
23685;DHT22;12020;51.384;6.908;2023-06-26T02:29:35;21.80;99.90
23685;DHT22;12020;51.384;6.908;2023-06-26T02:32:01;21.80;99.90
23685;DHT22;12020;51.384;6.908;2023-06-26T02:34:27;21.80;99.90
23685;DHT22;12020;51.384;6.908;2023-06-26T02:36:53;21.80;99.90
23685;DHT22;12020;51.384;6.908;2023-06-26T02:39:22;21.80;99.90
23685;DHT22;12020;51.384;6.908;2023-06-26T02:41:47;21.80;99.90
23685;DHT22;12020;51.384;6.908;2023-06-26T02:44:13;21.80;99.90
23685;DHT22;12020;51.384;6.908;2023-06-26T02:46:40;21.80;99.90
23685;DHT22;12020;51.384;6.908;2023-06-26T02:49:07;21.80;99.90
23685;DHT22;12020;51.384;6.908;2023-06-26T02:51:33;21.80;99.90
23685;DHT22;12020;51.384;6.908;2023-06-26T02:53:59;21.80;99.90
23685;DHT22;12020;51.384;6.908;2023-06-26T02:56:24;21.80;99.90
23685;DHT22;12020;51.384;6.908;2023-06-26T02:58:54;21.80;99.90
23685;DHT22;12020;51.384;6.908;2023-06-26T03:01:20;21.80;99.90
23685;DHT22;12020;51.384;6.908;2023-06-26T03:03:46;21.80;99.90
23685;DHT22;12020;51.384;6.908;2023-06-26T03:06:12;21.80;99.90
23685;DHT22;12020;51.384;6.908;2023-06-26T03:08:39;21.80;99.90
23685;DHT22;12020;51.384;6.908;2023-06-26T03:11:09;21.90;99.90
23685;DHT22;12020;51.384;6.908;2023-06-26T03:13:36;21.80;99.90
23685;DHT22;12020;51.384;6.908;2023-06-26T03:16:03;21.90;99.90
23685;DHT22;12020;51.384;6.908;2023-06-26T03:18:28;21.90;99.90
23685;DHT22;12020;51.384;6.908;2023-06-26T03:20:55;21.90;99.90
23685;DHT22;12020;51.384;6.908;2023-06-26T03:23:21;22.00;99.90
23685;DHT22;12020;51.384;6.908;2023-06-26T03:25:48;22.00;99.90
23685;DHT22;12020;51.384;6.908;2023-06-26T03:28:13;21.90;99.90
23685;DHT22;12020;51.384;6.908;2023-06-26T03:30:39;22.00;99.90
23685;DHT22;12020;51.384;6.908;2023-06-26T03:33:05;22.00;99.90
23685;DHT22;12020;51.384;6.908;2023-06-26T03:35:30;22.00;99.90
23685;DHT22;12020;51.384;6.908;2023-06-26T03:37:57;22.00;99.90
23685;DHT22;12020;51.384;6.908;2023-06-26T03:40:23;22.00;99.90
23685;DHT22;12020;51.384;6.908;2023-06-26T03:42:49;22.10;99.90
23685;DHT22;12020;51.384;6.908;2023-06-26T03:45:14;22.10;99.90
23685;DHT22;12020;51.384;6.908;2023-06-26T03:47:40;22.10;99.90
23685;DHT22;12020;51.384;6.908;2023-06-26T03:50:06;22.10;99.90
23685;DHT22;12020;51.384;6.908;2023-06-26T03:52:32;22.10;99.90
23685;DHT22;12020;51.384;6.908;2023-06-26T03:54:59;22.10;99.90
23685;DHT22;12020;51.384;6.908;2023-06-26T03:57:25;22.10;99.90
23685;DHT22;12020;51.384;6.908;2023-06-26T03:59:51;22.10;99.90
23685;DHT22;12020;51.384;6.908;2023-06-26T04:02:17;22.10;99.90
23685;DHT22;12020;51.384;6.908;2023-06-26T04:04:42;22.10;99.90
23685;DHT22;12020;51.384;6.908;2023-06-26T04:07:08;22.10;99.90
23685;DHT22;12020;51.384;6.908;2023-06-26T04:09:34;22.10;99.90
23685;DHT22;12020;51.384;6.908;2023-06-26T04:11:59;22.10;99.90
23685;DHT22;12020;51.384;6.908;2023-06-26T04:14:25;22.10;99.90
23685;DHT22;12020;51.384;6.908;2023-06-26T04:16:51;22.10;99.90
23685;DHT22;12020;51.384;6.908;2023-06-26T04:19:16;22.10;99.90
23685;DHT22;12020;51.384;6.908;2023-06-26T04:21:42;22.00;99.90
23685;DHT22;12020;51.384;6.908;2023-06-26T04:24:08;22.00;99.90
23685;DHT22;12020;51.384;6.908;2023-06-26T04:26:34;22.00;99.90
23685;DHT22;12020;51.384;6.908;2023-06-26T04:29:00;22.00;99.90
23685;DHT22;12020;51.384;6.908;2023-06-26T04:31:26;22.00;99.90
23685;DHT22;12020;51.384;6.908;2023-06-26T04:33:51;22.10;99.90
23685;DHT22;12020;51.384;6.908;2023-06-26T04:36:20;22.10;99.90
23685;DHT22;12020;51.384;6.908;2023-06-26T04:38:46;22.10;99.90
23685;DHT22;12020;51.384;6.908;2023-06-26T04:41:13;22.10;99.90
23685;DHT22;12020;51.384;6.908;2023-06-26T04:43:39;22.00;99.90
23685;DHT22;12020;51.384;6.908;2023-06-26T04:46:05;22.00;99.90
23685;DHT22;12020;51.384;6.908;2023-06-26T04:48:31;22.10;99.90
23685;DHT22;12020;51.384;6.908;2023-06-26T04:50:57;22.10;99.90
23685;DHT22;12020;51.384;6.908;2023-06-26T04:53:24;22.10;99.90
23685;DHT22;12020;51.384;6.908;2023-06-26T04:55:51;22.20;99.90
23685;DHT22;12020;51.384;6.908;2023-06-26T04:58:17;22.20;99.90
23685;DHT22;12020;51.384;6.908;2023-06-26T05:00:43;22.20;99.90
23685;DHT22;12020;51.384;6.908;2023-06-26T05:03:12;22.20;99.90
23685;DHT22;12020;51.384;6.908;2023-06-26T05:05:38;22.20;99.90
23685;DHT22;12020;51.384;6.908;2023-06-26T05:08:21;22.20;99.90
23685;DHT22;12020;51.384;6.908;2023-06-26T05:10:47;22.20;99.90
23685;DHT22;12020;51.384;6.908;2023-06-26T05:13:13;22.30;99.90
23685;DHT22;12020;51.384;6.908;2023-06-26T05:15:44;22.30;99.90
23685;DHT22;12020;51.384;6.908;2023-06-26T05:18:10;22.30;99.90
23685;DHT22;12020;51.384;6.908;2023-06-26T05:20:36;22.40;99.90
23685;DHT22;12020;51.384;6.908;2023-06-26T05:23:05;22.40;99.90
23685;DHT22;12020;51.384;6.908;2023-06-26T05:25:32;22.40;99.90
23685;DHT22;12020;51.384;6.908;2023-06-26T05:28:00;22.50;99.90
23685;DHT22;12020;51.384;6.908;2023-06-26T05:30:28;22.50;99.90
23685;DHT22;12020;51.384;6.908;2023-06-26T05:32:56;22.50;99.90
23685;DHT22;12020;51.384;6.908;2023-06-26T05:35:26;22.40;99.90
23685;DHT22;12020;51.384;6.908;2023-06-26T05:37:55;22.30;99.90
23685;DHT22;12020;51.384;6.908;2023-06-26T05:40:21;22.20;99.90
23685;DHT22;12020;51.384;6.908;2023-06-26T05:42:51;22.10;99.90
23685;DHT22;12020;51.384;6.908;2023-06-26T05:45:19;22.10;99.90
23685;DHT22;12020;51.384;6.908;2023-06-26T05:47:44;22.10;99.90
23685;DHT22;12020;51.384;6.908;2023-06-26T05:50:12;22.10;99.90
23685;DHT22;12020;51.384;6.908;2023-06-26T05:52:38;22.10;99.90
23685;DHT22;12020;51.384;6.908;2023-06-26T05:55:10;22.20;99.90
23685;DHT22;12020;51.384;6.908;2023-06-26T05:57:41;22.30;99.90
23685;DHT22;12020;51.384;6.908;2023-06-26T06:00:12;22.40;99.90
23685;DHT22;12020;51.384;6.908;2023-06-26T06:02:38;22.40;99.90
23685;DHT22;12020;51.384;6.908;2023-06-26T06:05:11;22.30;99.90
23685;DHT22;12020;51.384;6.908;2023-06-26T06:07:37;22.30;99.90
23685;DHT22;12020;51.384;6.908;2023-06-26T06:10:04;22.30;99.90
23685;DHT22;12020;51.384;6.908;2023-06-26T06:12:30;22.30;99.90
23685;DHT22;12020;51.384;6.908;2023-06-26T06:14:56;22.20;99.90
23685;DHT22;12020;51.384;6.908;2023-06-26T06:17:25;22.20;99.90
23685;DHT22;12020;51.384;6.908;2023-06-26T06:19:51;22.20;99.90
23685;DHT22;12020;51.384;6.908;2023-06-26T06:22:17;22.20;99.90
23685;DHT22;12020;51.384;6.908;2023-06-26T06:24:45;22.20;99.90
23685;DHT22;12020;51.384;6.908;2023-06-26T06:27:10;22.20;99.90
23685;DHT22;12020;51.384;6.908;2023-06-26T06:29:36;22.20;99.90
23685;DHT22;12020;51.384;6.908;2023-06-26T06:32:03;22.20;99.90
23685;DHT22;12020;51.384;6.908;2023-06-26T06:34:30;22.20;99.90
23685;DHT22;12020;51.384;6.908;2023-06-26T06:36:55;22.20;99.90
23685;DHT22;12020;51.384;6.908;2023-06-26T06:39:21;22.20;99.90
23685;DHT22;12020;51.384;6.908;2023-06-26T06:41:46;22.10;99.90
23685;DHT22;12020;51.384;6.908;2023-06-26T06:44:13;22.10;99.90
23685;DHT22;12020;51.384;6.908;2023-06-26T06:46:40;22.10;99.90
23685;DHT22;12020;51.384;6.908;2023-06-26T06:49:05;22.20;99.90
23685;DHT22;12020;51.384;6.908;2023-06-26T06:51:31;22.20;99.90
23685;DHT22;12020;51.384;6.908;2023-06-26T06:53:56;22.20;99.90
23685;DHT22;12020;51.384;6.908;2023-06-26T06:56:24;22.20;99.90
23685;DHT22;12020;51.384;6.908;2023-06-26T06:58:51;22.20;99.90
23685;DHT22;12020;51.384;6.908;2023-06-26T07:01:16;22.20;99.90
23685;DHT22;12020;51.384;6.908;2023-06-26T07:03:44;22.20;99.90
23685;DHT22;12020;51.384;6.908;2023-06-26T07:06:10;22.20;99.90
23685;DHT22;12020;51.384;6.908;2023-06-26T07:08:36;22.20;99.90
23685;DHT22;12020;51.384;6.908;2023-06-26T07:11:01;22.20;99.90
23685;DHT22;12020;51.384;6.908;2023-06-26T07:13:29;22.30;99.90
23685;DHT22;12020;51.384;6.908;2023-06-26T07:15:56;22.40;99.90
23685;DHT22;12020;51.384;6.908;2023-06-26T07:18:21;22.50;99.90
23685;DHT22;12020;51.384;6.908;2023-06-26T07:20:47;22.70;99.90
23685;DHT22;12020;51.384;6.908;2023-06-26T07:23:14;22.80;99.90
23685;DHT22;12020;51.384;6.908;2023-06-26T07:25:39;22.80;99.90
23685;DHT22;12020;51.384;6.908;2023-06-26T07:28:12;22.90;99.90
23685;DHT22;12020;51.384;6.908;2023-06-26T07:30:39;23.00;99.90
23685;DHT22;12020;51.384;6.908;2023-06-26T07:33:05;23.10;99.90
23685;DHT22;12020;51.384;6.908;2023-06-26T07:35:31;23.10;99.90
23685;DHT22;12020;51.384;6.908;2023-06-26T07:37:56;23.10;99.90
23685;DHT22;12020;51.384;6.908;2023-06-26T07:40:22;23.10;99.90
23685;DHT22;12020;51.384;6.908;2023-06-26T07:42:49;23.20;99.90
23685;DHT22;12020;51.384;6.908;2023-06-26T07:45:21;23.30;99.90
23685;DHT22;12020;51.384;6.908;2023-06-26T07:47:50;23.30;99.90
23685;DHT22;12020;51.384;6.908;2023-06-26T07:50:15;23.40;99.90
23685;DHT22;12020;51.384;6.908;2023-06-26T07:52:47;23.50;99.90
23685;DHT22;12020;51.384;6.908;2023-06-26T07:55:14;23.60;99.90
23685;DHT22;12020;51.384;6.908;2023-06-26T07:57:47;23.70;99.90
23685;DHT22;12020;51.384;6.908;2023-06-26T08:00:13;23.90;99.90
23685;DHT22;12020;51.384;6.908;2023-06-26T08:02:47;24.00;99.90
23685;DHT22;12020;51.384;6.908;2023-06-26T08:05:13;24.10;99.90
23685;DHT22;12020;51.384;6.908;2023-06-26T08:07:47;24.30;99.90
23685;DHT22;12020;51.384;6.908;2023-06-26T08:10:14;24.10;99.90
23685;DHT22;12020;51.384;6.908;2023-06-26T08:12:40;23.90;99.90
23685;DHT22;12020;51.384;6.908;2023-06-26T08:15:14;23.80;99.90
23685;DHT22;12020;51.384;6.908;2023-06-26T08:17:39;23.90;99.90
23685;DHT22;12020;51.384;6.908;2023-06-26T08:20:11;24.00;99.90
23685;DHT22;12020;51.384;6.908;2023-06-26T08:22:43;24.10;99.90
23685;DHT22;12020;51.384;6.908;2023-06-26T08:25:10;24.20;99.90
23685;DHT22;12020;51.384;6.908;2023-06-26T08:27:35;24.30;99.90
23685;DHT22;12020;51.384;6.908;2023-06-26T08:30:01;24.30;99.90
23685;DHT22;12020;51.384;6.908;2023-06-26T08:32:28;24.30;99.90
23685;DHT22;12020;51.384;6.908;2023-06-26T08:34:57;24.30;99.90
23685;DHT22;12020;51.384;6.908;2023-06-26T08:37:23;24.20;99.90
23685;DHT22;12020;51.384;6.908;2023-06-26T08:39:49;24.10;99.90
23685;DHT22;12020;51.384;6.908;2023-06-26T08:42:15;24.10;99.90
23685;DHT22;12020;51.384;6.908;2023-06-26T08:44:41;24.10;99.90
23685;DHT22;12020;51.384;6.908;2023-06-26T08:47:11;24.20;99.90
23685;DHT22;12020;51.384;6.908;2023-06-26T08:49:51;24.30;99.90
23685;DHT22;12020;51.384;6.908;2023-06-26T08:52:36;24.40;99.90
23685;DHT22;12020;51.384;6.908;2023-06-26T08:55:09;24.60;99.90
23685;DHT22;12020;51.384;6.908;2023-06-26T08:57:37;24.80;99.90
23685;DHT22;12020;51.384;6.908;2023-06-26T09:00:04;25.10;99.90
23685;DHT22;12020;51.384;6.908;2023-06-26T09:02:31;25.30;99.90
23685;DHT22;12020;51.384;6.908;2023-06-26T09:04:59;25.30;99.90
23685;DHT22;12020;51.384;6.908;2023-06-26T09:07:24;25.20;99.90
23685;DHT22;12020;51.384;6.908;2023-06-26T09:09:51;25.10;99.90
23685;DHT22;12020;51.384;6.908;2023-06-26T09:12:17;25.00;99.90
23685;DHT22;12020;51.384;6.908;2023-06-26T09:14:46;25.00;99.90
23685;DHT22;12020;51.384;6.908;2023-06-26T09:17:13;25.10;99.90
23685;DHT22;12020;51.384;6.908;2023-06-26T09:19:40;25.20;99.90
23685;DHT22;12020;51.384;6.908;2023-06-26T09:22:11;25.30;99.90
23685;DHT22;12020;51.384;6.908;2023-06-26T09:24:41;25.50;99.90
23685;DHT22;12020;51.384;6.908;2023-06-26T09:27:08;25.60;99.90
23685;DHT22;12020;51.384;6.908;2023-06-26T09:29:35;25.70;99.90
23685;DHT22;12020;51.384;6.908;2023-06-26T09:32:01;25.60;99.90
23685;DHT22;12020;51.384;6.908;2023-06-26T09:34:32;25.60;99.90
23685;DHT22;12020;51.384;6.908;2023-06-26T09:36:59;25.80;99.90
23685;DHT22;12020;51.384;6.908;2023-06-26T09:39:30;25.80;99.90
23685;DHT22;12020;51.384;6.908;2023-06-26T09:41:56;25.80;99.90
23685;DHT22;12020;51.384;6.908;2023-06-26T09:44:24;25.90;99.90
23685;DHT22;12020;51.384;6.908;2023-06-26T09:46:55;25.90;99.90
23685;DHT22;12020;51.384;6.908;2023-06-26T09:49:24;25.90;99.90
23685;DHT22;12020;51.384;6.908;2023-06-26T09:51:51;25.80;99.90
23685;DHT22;12020;51.384;6.908;2023-06-26T09:54:18;26.10;99.90
23685;DHT22;12020;51.384;6.908;2023-06-26T09:56:46;26.30;99.90
23685;DHT22;12020;51.384;6.908;2023-06-26T09:59:15;26.50;99.90
23685;DHT22;12020;51.384;6.908;2023-06-26T10:01:50;26.50;99.90
23685;DHT22;12020;51.384;6.908;2023-06-26T10:04:23;26.60;99.90
23685;DHT22;12020;51.384;6.908;2023-06-26T10:06:57;26.70;99.90
23685;DHT22;12020;51.384;6.908;2023-06-26T10:09:24;26.90;99.90
23685;DHT22;12020;51.384;6.908;2023-06-26T10:12:03;26.90;99.90
23685;DHT22;12020;51.384;6.908;2023-06-26T10:14:37;26.80;99.90
23685;DHT22;12020;51.384;6.908;2023-06-26T10:17:10;26.70;99.90
23685;DHT22;12020;51.384;6.908;2023-06-26T10:19:44;26.90;99.90
23685;DHT22;12020;51.384;6.908;2023-06-26T10:22:16;26.70;99.90
23685;DHT22;12020;51.384;6.908;2023-06-26T10:24:43;26.40;99.90
23685;DHT22;12020;51.384;6.908;2023-06-26T10:27:20;26.00;99.90
23685;DHT22;12020;51.384;6.908;2023-06-26T10:29:58;26.00;99.90
23685;DHT22;12020;51.384;6.908;2023-06-26T10:32:27;26.20;99.90
23685;DHT22;12020;51.384;6.908;2023-06-26T10:34:55;26.40;99.90
23685;DHT22;12020;51.384;6.908;2023-06-26T10:37:47;26.30;99.90
23685;DHT22;12020;51.384;6.908;2023-06-26T10:40:14;26.40;99.90
23685;DHT22;12020;51.384;6.908;2023-06-26T10:42:41;26.50;99.90
23685;DHT22;12020;51.384;6.908;2023-06-26T10:45:19;26.50;99.90
23685;DHT22;12020;51.384;6.908;2023-06-26T10:47:51;26.50;99.90
23685;DHT22;12020;51.384;6.908;2023-06-26T10:50:28;26.20;99.90
23685;DHT22;12020;51.384;6.908;2023-06-26T10:55:57;26.40;99.90
23685;DHT22;12020;51.384;6.908;2023-06-26T11:06:14;26.60;99.90
23685;DHT22;12020;51.384;6.908;2023-06-26T11:08:51;26.40;99.90
23685;DHT22;12020;51.384;6.908;2023-06-26T11:11:22;26.40;99.90
23685;DHT22;12020;51.384;6.908;2023-06-26T11:13:49;26.30;99.90
23685;DHT22;12020;51.384;6.908;2023-06-26T11:16:15;26.10;99.90
23685;DHT22;12020;51.384;6.908;2023-06-26T11:18:42;26.00;99.90
23685;DHT22;12020;51.384;6.908;2023-06-26T11:21:16;25.80;99.90
23685;DHT22;12020;51.384;6.908;2023-06-26T11:23:48;25.80;99.90
23685;DHT22;12020;51.384;6.908;2023-06-26T11:26:21;25.90;99.90
23685;DHT22;12020;51.384;6.908;2023-06-26T11:28:55;26.00;99.90
23685;DHT22;12020;51.384;6.908;2023-06-26T11:31:24;26.10;99.90
23685;DHT22;12020;51.384;6.908;2023-06-26T11:33:50;26.00;99.90
23685;DHT22;12020;51.384;6.908;2023-06-26T11:36:16;25.80;99.90
23685;DHT22;12020;51.384;6.908;2023-06-26T11:38:42;25.60;99.90
23685;DHT22;12020;51.384;6.908;2023-06-26T11:41:07;25.50;99.90
23685;DHT22;12020;51.384;6.908;2023-06-26T11:43:34;25.30;99.90
23685;DHT22;12020;51.384;6.908;2023-06-26T11:46:02;25.50;99.90
23685;DHT22;12020;51.384;6.908;2023-06-26T11:48:27;25.60;99.90
23685;DHT22;12020;51.384;6.908;2023-06-26T11:50:54;25.80;99.90
23685;DHT22;12020;51.384;6.908;2023-06-26T11:53:20;25.90;99.90
23685;DHT22;12020;51.384;6.908;2023-06-26T11:55:45;26.00;99.90
23685;DHT22;12020;51.384;6.908;2023-06-26T11:58:11;26.10;99.90
23685;DHT22;12020;51.384;6.908;2023-06-26T12:00:41;26.10;99.90
23685;DHT22;12020;51.384;6.908;2023-06-26T12:03:08;26.20;99.90
23685;DHT22;12020;51.384;6.908;2023-06-26T12:08:09;26.10;99.90
23685;DHT22;12020;51.384;6.908;2023-06-26T12:10:34;26.00;99.90
23685;DHT22;12020;51.384;6.908;2023-06-26T12:13:01;25.70;99.90
23685;DHT22;12020;51.384;6.908;2023-06-26T12:15:28;25.50;99.90
23685;DHT22;12020;51.384;6.908;2023-06-26T12:17:55;25.50;99.90
23685;DHT22;12020;51.384;6.908;2023-06-26T12:20:22;25.20;99.90
23685;DHT22;12020;51.384;6.908;2023-06-26T12:22:48;25.10;99.60
23685;DHT22;12020;51.384;6.908;2023-06-26T12:25:14;25.10;99.80
23685;DHT22;12020;51.384;6.908;2023-06-26T12:27:44;25.30;98.50
23685;DHT22;12020;51.384;6.908;2023-06-26T12:30:10;25.40;98.40
23685;DHT22;12020;51.384;6.908;2023-06-26T12:32:36;25.40;96.70
23685;DHT22;12020;51.384;6.908;2023-06-26T12:35:03;25.40;97.40
23685;DHT22;12020;51.384;6.908;2023-06-26T12:37:29;25.40;98.90
23685;DHT22;12020;51.384;6.908;2023-06-26T12:40:16;25.50;99.10
23685;DHT22;12020;51.384;6.908;2023-06-26T12:42:43;25.60;97.30
23685;DHT22;12020;51.384;6.908;2023-06-26T12:45:14;25.60;96.50
23685;DHT22;12020;51.384;6.908;2023-06-26T12:47:41;25.50;96.90
23685;DHT22;12020;51.384;6.908;2023-06-26T12:50:08;25.50;97.10
23685;DHT22;12020;51.384;6.908;2023-06-26T12:52:33;25.40;97.40
23685;DHT22;12020;51.384;6.908;2023-06-26T12:54:59;25.20;98.50
23685;DHT22;12020;51.384;6.908;2023-06-26T12:57:25;25.30;99.00
23685;DHT22;12020;51.384;6.908;2023-06-26T12:59:51;25.20;96.70
23685;DHT22;12020;51.384;6.908;2023-06-26T13:02:17;25.10;97.10
23685;DHT22;12020;51.384;6.908;2023-06-26T13:04:43;25.10;96.90
23685;DHT22;12020;51.384;6.908;2023-06-26T13:07:11;25.10;96.90
23685;DHT22;12020;51.384;6.908;2023-06-26T13:09:39;25.30;96.60
23685;DHT22;12020;51.384;6.908;2023-06-26T13:12:06;25.40;95.90
23685;DHT22;12020;51.384;6.908;2023-06-26T13:14:41;25.50;95.60
23685;DHT22;12020;51.384;6.908;2023-06-26T13:17:07;25.50;94.70
23685;DHT22;12020;51.384;6.908;2023-06-26T13:19:32;25.50;95.90
23685;DHT22;12020;51.384;6.908;2023-06-26T13:21:58;25.60;97.20
23685;DHT22;12020;51.384;6.908;2023-06-26T13:24:25;25.60;97.30
23685;DHT22;12020;51.384;6.908;2023-06-26T13:26:51;25.60;96.60
23685;DHT22;12020;51.384;6.908;2023-06-26T13:29:17;25.60;97.10
23685;DHT22;12020;51.384;6.908;2023-06-26T13:31:42;25.70;95.80
23685;DHT22;12020;51.384;6.908;2023-06-26T13:34:20;25.70;95.40
23685;DHT22;12020;51.384;6.908;2023-06-26T13:36:48;25.80;94.80
23685;DHT22;12020;51.384;6.908;2023-06-26T13:39:15;25.80;94.70
23685;DHT22;12020;51.384;6.908;2023-06-26T13:41:41;25.60;94.40
23685;DHT22;12020;51.384;6.908;2023-06-26T13:44:06;25.40;95.60
23685;DHT22;12020;51.384;6.908;2023-06-26T13:46:32;25.20;96.30
23685;DHT22;12020;51.384;6.908;2023-06-26T13:48:58;25.10;96.60
23685;DHT22;12020;51.384;6.908;2023-06-26T13:51:24;24.90;96.10
23685;DHT22;12020;51.384;6.908;2023-06-26T13:53:50;24.70;94.90
23685;DHT22;12020;51.384;6.908;2023-06-26T13:56:16;24.60;94.20
23685;DHT22;12020;51.384;6.908;2023-06-26T13:58:41;24.40;94.30
23685;DHT22;12020;51.384;6.908;2023-06-26T14:01:08;24.20;95.00
23685;DHT22;12020;51.384;6.908;2023-06-26T14:03:35;24.10;94.60
23685;DHT22;12020;51.384;6.908;2023-06-26T14:06:02;24.10;95.20
23685;DHT22;12020;51.384;6.908;2023-06-26T14:08:27;24.30;96.90
23685;DHT22;12020;51.384;6.908;2023-06-26T14:10:53;24.40;97.80
23685;DHT22;12020;51.384;6.908;2023-06-26T14:13:19;24.60;96.20
23685;DHT22;12020;51.384;6.908;2023-06-26T14:15:46;24.70;95.50
23685;DHT22;12020;51.384;6.908;2023-06-26T14:18:12;24.80;96.10
23685;DHT22;12020;51.384;6.908;2023-06-26T14:20:38;24.80;95.10
23685;DHT22;12020;51.384;6.908;2023-06-26T14:23:05;24.80;94.60
23685;DHT22;12020;51.384;6.908;2023-06-26T14:25:31;24.80;94.70
23685;DHT22;12020;51.384;6.908;2023-06-26T14:27:59;24.90;93.90
23685;DHT22;12020;51.384;6.908;2023-06-26T14:30:24;25.00;93.40
23685;DHT22;12020;51.384;6.908;2023-06-26T14:32:50;25.00;93.90
23685;DHT22;12020;51.384;6.908;2023-06-26T14:35:17;25.10;94.00
23685;DHT22;12020;51.384;6.908;2023-06-26T14:37:43;25.20;94.30
23685;DHT22;12020;51.384;6.908;2023-06-26T14:40:09;25.20;93.80
23685;DHT22;12020;51.384;6.908;2023-06-26T14:42:35;25.20;94.20
23685;DHT22;12020;51.384;6.908;2023-06-26T14:45:01;25.30;95.50
23685;DHT22;12020;51.384;6.908;2023-06-26T14:47:32;25.20;95.30
23685;DHT22;12020;51.384;6.908;2023-06-26T14:49:58;25.20;94.70
23685;DHT22;12020;51.384;6.908;2023-06-26T14:52:23;25.10;93.30
23685;DHT22;12020;51.384;6.908;2023-06-26T14:54:50;25.00;92.90
23685;DHT22;12020;51.384;6.908;2023-06-26T14:57:16;24.90;93.30
23685;DHT22;12020;51.384;6.908;2023-06-26T14:59:42;24.80;93.30
23685;DHT22;12020;51.384;6.908;2023-06-26T15:02:07;24.60;92.90
23685;DHT22;12020;51.384;6.908;2023-06-26T15:04:33;24.50;94.00
23685;DHT22;12020;51.384;6.908;2023-06-26T15:06:59;24.30;95.20
23685;DHT22;12020;51.384;6.908;2023-06-26T15:12:02;24.10;93.80
23685;DHT22;12020;51.384;6.908;2023-06-26T15:17:07;23.90;93.10
23685;DHT22;12020;51.384;6.908;2023-06-26T15:19:34;24.00;94.50
23685;DHT22;12020;51.384;6.908;2023-06-26T15:22:01;24.10;93.20
23685;DHT22;12020;51.384;6.908;2023-06-26T15:24:27;24.20;92.00
23685;DHT22;12020;51.384;6.908;2023-06-26T15:26:52;24.30;92.20
23685;DHT22;12020;51.384;6.908;2023-06-26T15:29:18;24.20;93.20
23685;DHT22;12020;51.384;6.908;2023-06-26T15:31:45;24.30;95.10
23685;DHT22;12020;51.384;6.908;2023-06-26T15:34:10;24.30;96.00
23685;DHT22;12020;51.384;6.908;2023-06-26T15:36:36;24.30;95.20
23685;DHT22;12020;51.384;6.908;2023-06-26T15:39:03;24.30;94.70
23685;DHT22;12020;51.384;6.908;2023-06-26T15:44:14;24.00;93.50
23685;DHT22;12020;51.384;6.908;2023-06-26T15:46:39;23.90;94.00
23685;DHT22;12020;51.384;6.908;2023-06-26T15:49:05;23.80;93.80
23685;DHT22;12020;51.384;6.908;2023-06-26T15:51:31;23.70;94.10
23685;DHT22;12020;51.384;6.908;2023-06-26T15:53:59;23.60;94.10
23685;DHT22;12020;51.384;6.908;2023-06-26T15:56:24;23.60;93.80
23685;DHT22;12020;51.384;6.908;2023-06-26T15:58:50;23.60;93.60
23685;DHT22;12020;51.384;6.908;2023-06-26T16:01:16;23.50;93.60
23685;DHT22;12020;51.384;6.908;2023-06-26T16:03:41;23.40;93.40